createdAt,value
2023-03-21T00:00:59.240Z,100124.88
2023-03-21T00:03:28.904Z,100120.02
2023-03-21T00:05:59.290Z,100116.86
2023-03-21T00:08:27.543Z,100114.09
2023-03-21T00:11:01.023Z,100117.23
2023-03-21T00:13:33.026Z,100118.66
2023-03-21T00:16:19.392Z,100119.89
2023-03-21T00:18:53.965Z,100118.91
2023-03-21T00:21:43.969Z,100117.91
2023-03-21T00:24:11.024Z,100119.16
2023-03-21T00:26:40.463Z,100116.92
2023-03-21T00:29:09.109Z,100115.56
2023-03-21T00:31:40.645Z,100119.27
2023-03-21T00:36:39.194Z,100119.09
2023-03-21T00:39:09.386Z,100117.91
2023-03-21T00:41:44.832Z,100117.78
2023-03-21T00:44:16.114Z,100115.74
2023-03-21T00:46:57.055Z,100114.38
2023-03-21T00:49:34.341Z,100107.41
2023-03-21T00:52:34.386Z,100108.05
2023-03-21T00:54:55.113Z,100106.16
2023-03-21T00:57:37.558Z,100104.09
2023-03-21T01:00:12.123Z,100104.77
2023-03-21T01:03:14.201Z,100104.65
2023-03-21T01:06:04.321Z,100102.37
2023-03-21T01:08:51.201Z,100100.64
2023-03-21T01:11:26.006Z,100096.46
2023-03-21T01:14:04.194Z,100089.04
2023-03-21T01:16:39.617Z,100087.54
2023-03-21T01:19:14.940Z,100089.63
2023-03-21T01:21:50.711Z,100088.88
2023-03-21T01:24:19.305Z,100088.08
2023-03-21T01:26:48.527Z,100088.45
2023-03-21T01:29:17.086Z,100090.29
2023-03-21T01:31:45.687Z,100089.45
2023-03-21T01:34:14.045Z,100089.89
2023-03-21T01:37:02.488Z,100091.95
2023-03-21T01:39:35.048Z,100092.92
2023-03-21T01:42:03.356Z,100093.02
2023-03-21T01:44:32.143Z,100095.74
2023-03-21T01:47:11.068Z,100094.05
2023-03-21T01:49:51.019Z,100088.64
2023-03-21T01:52:38.116Z,100086.96
2023-03-21T01:55:16.515Z,100092.05
2023-03-21T01:58:05.863Z,100090.55
2023-03-21T02:00:49.248Z,100087.30
2023-03-21T02:03:35.340Z,100087.52
2023-03-21T02:06:37.463Z,100087.36
2023-03-21T02:09:16.784Z,100081.86
2023-03-21T02:11:51.058Z,100082.30
2023-03-21T02:14:28.977Z,100081.13
2023-03-21T02:17:20.016Z,100078.36
2023-03-21T02:20:02.787Z,100077.02
2023-03-21T02:23:10.798Z,100079.02
2023-03-21T02:25:57.099Z,100080.35
2023-03-21T02:28:46.288Z,100080.95
2023-03-21T02:31:54.631Z,100080.61
2023-03-21T02:34:30.188Z,100078.05
2023-03-21T02:37:02.784Z,100076.96
2023-03-21T02:39:54.140Z,100075.54
2023-03-21T02:42:33.819Z,100073.94
2023-03-21T02:45:04.167Z,100072.96
2023-03-21T02:47:41.037Z,100070.29
2023-03-21T02:50:53.095Z,100066.17
2023-03-21T02:53:23.408Z,100067.34
2023-03-21T02:55:53.018Z,100067.02
2023-03-21T02:58:39.285Z,100069.36
2023-03-21T03:01:09.236Z,100068.66
2023-03-21T03:03:45.185Z,100066.60
2023-03-21T03:06:21.877Z,100067.82
2023-03-21T03:09:02.838Z,100066.75
2023-03-21T03:11:33.699Z,100060.62
2023-03-21T03:14:44.254Z,100058.23
2023-03-21T03:17:46.583Z,100058.20
2023-03-21T03:20:23.525Z,100062.33
2023-03-21T03:22:59.926Z,100060.20
2023-03-21T03:25:42.973Z,100057.73
2023-03-21T03:28:15.969Z,100057.52
2023-03-21T03:30:57.462Z,100060.00
2023-03-21T03:33:34.887Z,100061.10
2023-03-21T03:36:07.168Z,100061.13
2023-03-21T03:38:37.486Z,100062.15
2023-03-21T03:41:11.061Z,100060.37
2023-03-21T03:43:51.046Z,100059.39
2023-03-21T03:46:29.372Z,100062.55
2023-03-21T03:49:05.664Z,100065.52
2023-03-21T03:51:51.915Z,100059.56
2023-03-21T03:54:32.986Z,100058.29
2023-03-21T03:57:05.191Z,100058.59
2023-03-21T03:59:37.356Z,100056.33
2023-03-21T04:02:20.633Z,100055.64
2023-03-21T04:04:53.097Z,100056.36
2023-03-21T04:07:22.597Z,100056.95
2023-03-21T04:09:53.638Z,100059.27
2023-03-21T04:12:22.453Z,100061.38
2023-03-21T04:15:23.318Z,100061.86
2023-03-21T04:17:57.677Z,100064.34
2023-03-21T04:20:36.079Z,100061.41
2023-03-21T04:23:06.618Z,100063.02
2023-03-21T04:25:44.627Z,100064.10
2023-03-21T04:28:16.279Z,100066.00
2023-03-21T04:31:01.202Z,100064.98
2023-03-21T04:33:38.641Z,100065.61
2023-03-21T04:36:09.547Z,100063.69
2023-03-21T04:38:39.292Z,100062.92
2023-03-21T04:41:08.051Z,100062.96
2023-03-21T04:43:38.599Z,100065.73
2023-03-21T04:46:07.488Z,100063.47
2023-03-21T04:48:35.881Z,100063.98
2023-03-21T04:51:07.035Z,100065.17
2023-03-21T04:53:36.217Z,100063.54
2023-03-21T04:56:04.871Z,100064.41
2023-03-21T04:58:33.701Z,100064.91
2023-03-21T05:01:02.700Z,100071.56
2023-03-21T05:03:40.156Z,100068.00
2023-03-21T05:06:09.541Z,100072.42
2023-03-21T05:08:37.846Z,100068.68
2023-03-21T05:11:07.295Z,100071.34
2023-03-21T05:13:36.231Z,100070.52
2023-03-21T05:16:05.549Z,100070.98
2023-03-21T05:18:38.969Z,100074.65
2023-03-21T05:21:13.694Z,100076.13
2023-03-21T05:23:42.072Z,100077.69
2023-03-21T05:26:11.048Z,100080.10
2023-03-21T05:28:48.431Z,100077.66
2023-03-21T05:31:18.595Z,100077.86
2023-03-21T05:33:48.876Z,100080.01
2023-03-21T05:36:24.627Z,100077.56
2023-03-21T05:38:52.806Z,100078.54
2023-03-21T05:41:21.593Z,100079.48
2023-03-21T05:43:50.162Z,100082.09
2023-03-21T05:46:18.390Z,100085.52
2023-03-21T05:48:48.639Z,100085.27
2023-03-21T05:51:19.127Z,100085.27
2023-03-21T05:53:47.522Z,100084.90
2023-03-21T05:56:16.883Z,100080.16
2023-03-21T05:58:50.454Z,100079.30
2023-03-21T06:01:19.372Z,100078.02
2023-03-21T06:03:53.872Z,100075.56
2023-03-21T06:06:28.806Z,100077.10
2023-03-21T06:08:58.592Z,100075.71
2023-03-21T06:11:29.170Z,100074.36
2023-03-21T06:14:13.089Z,100075.45
2023-03-21T06:16:45.596Z,100073.09
2023-03-21T06:19:14.873Z,100073.95
2023-03-21T06:22:00.276Z,100069.66
2023-03-21T06:24:29.061Z,100065.52
2023-03-21T06:26:57.650Z,100066.08
2023-03-21T06:29:27.933Z,100065.07
2023-03-21T06:31:56.139Z,100064.14
2023-03-21T06:34:24.729Z,100063.11
2023-03-21T06:37:00.513Z,100061.54
2023-03-21T06:39:33.272Z,100060.09
2023-03-21T06:42:01.674Z,100061.80
2023-03-21T06:44:34.478Z,100058.27
2023-03-21T06:47:06.747Z,100057.16
2023-03-21T06:49:35.402Z,100055.18
2023-03-21T06:52:10.089Z,100055.27
2023-03-21T06:54:38.996Z,100054.92
2023-03-21T06:57:13.727Z,100052.55
2023-03-21T06:59:43.288Z,100050.45
2023-03-21T07:02:19.150Z,100051.86
2023-03-21T07:04:52.183Z,100050.54
2023-03-21T07:07:27.212Z,100053.52
2023-03-21T07:10:11.493Z,100052.04
2023-03-21T07:12:47.225Z,100047.23
2023-03-21T07:15:20.200Z,100045.90
2023-03-21T07:17:48.867Z,100045.00
2023-03-21T07:20:17.548Z,100045.55
2023-03-21T07:22:46.502Z,100044.36
2023-03-21T07:25:20.900Z,100048.50
2023-03-21T07:27:51.142Z,100046.58
2023-03-21T07:30:20.743Z,100041.73
2023-03-21T07:32:51.179Z,100041.08
2023-03-21T07:35:19.781Z,100040.00
2023-03-21T07:37:49.126Z,100038.11
2023-03-21T07:40:18.423Z,100034.55
2023-03-21T07:42:48.759Z,100035.75
2023-03-21T07:45:27.485Z,100036.32
2023-03-21T07:47:56.192Z,100038.23
2023-03-21T07:50:25.769Z,100038.10
2023-03-21T07:52:54.485Z,100037.66
2023-03-21T07:55:22.936Z,100036.15
2023-03-21T07:57:55.746Z,100041.55
2023-03-21T08:00:24.215Z,100042.30
2023-03-21T08:02:58.747Z,100037.81
2023-03-21T08:05:37.610Z,100036.00
2023-03-21T08:08:07.248Z,100037.06
2023-03-21T08:10:35.341Z,100032.14
2023-03-21T08:20:45.326Z,100031.44
2023-03-21T08:23:15.141Z,100034.70
2023-03-21T08:25:43.380Z,100031.11
2023-03-21T08:28:11.997Z,100030.01
2023-03-21T08:30:40.846Z,100031.35
2023-03-21T08:33:09.261Z,100030.75
2023-03-21T08:35:47.114Z,100030.08
2023-03-21T08:38:17.073Z,100026.76
2023-03-21T08:40:46.084Z,100022.04
2023-03-21T08:43:18.143Z,100020.96
2023-03-21T08:45:46.592Z,100019.52
2023-03-21T08:48:20.349Z,100010.63
2023-03-21T08:50:49.500Z,100007.50
2023-03-21T08:53:18.783Z,100007.50
2023-03-21T08:55:46.967Z,100007.01
2023-03-21T08:58:15.704Z,100012.45
2023-03-21T09:00:44.852Z,100009.48
2023-03-21T09:03:14.730Z,100007.53
2023-03-21T09:05:45.788Z,100003.80
2023-03-21T09:08:14.294Z,100000.75
2023-03-21T09:10:42.480Z,100002.09
2023-03-21T09:13:18.073Z,99997.48
2023-03-21T09:15:47.356Z,99995.83
2023-03-21T09:18:18.230Z,99994.02
2023-03-21T09:20:55.581Z,99992.73
2023-03-21T09:23:24.544Z,99990.51
2023-03-21T09:25:52.662Z,99986.58
2023-03-21T09:28:21.471Z,99986.92
2023-03-21T09:30:49.878Z,99986.16
2023-03-21T09:33:19.272Z,99987.35
2023-03-21T09:35:47.983Z,99985.73
2023-03-21T09:38:17.484Z,99988.04
2023-03-21T09:40:49.928Z,99986.97
2023-03-21T09:43:22.334Z,99983.98
2023-03-21T09:46:06.523Z,99981.89
2023-03-21T09:49:13.109Z,99981.14
2023-03-21T09:51:48.900Z,99982.25
2023-03-21T09:54:28.111Z,99977.25
2023-03-21T09:56:58.261Z,99976.70
2023-03-21T09:59:30.809Z,99977.73
2023-03-21T10:02:00.645Z,99975.19
2023-03-21T10:04:32.512Z,99975.34
2023-03-21T10:07:02.219Z,99973.07
2023-03-21T10:09:30.473Z,99971.11
2023-03-21T10:12:09.889Z,99971.75
2023-03-21T10:14:40.689Z,99970.54
2023-03-21T10:17:29.212Z,99968.48
2023-03-21T10:20:12.224Z,99967.59
2023-03-21T10:22:43.757Z,99968.27
2023-03-21T10:25:15.556Z,99968.12
2023-03-21T10:27:45.431Z,99965.48
2023-03-21T10:30:38.013Z,99961.94
2023-03-21T10:33:09.604Z,99960.96
2023-03-21T10:35:38.274Z,99958.08
2023-03-21T10:38:07.138Z,99956.48
2023-03-21T10:40:35.823Z,99958.95
2023-03-21T10:43:26.019Z,99955.51
2023-03-21T10:45:54.761Z,99952.84
2023-03-21T10:48:23.866Z,99951.36
2023-03-21T10:50:53.306Z,99949.80
2023-03-21T10:53:43.237Z,99950.02
2023-03-21T10:56:11.697Z,99949.20
2023-03-21T10:58:45.561Z,99949.37
2023-03-21T11:01:15.907Z,99947.96
2023-03-21T11:03:46.874Z,99940.05
2023-03-21T11:06:22.629Z,99942.86
2023-03-21T11:08:54.190Z,99942.42
2023-03-21T11:11:27.543Z,99940.35
2023-03-21T11:14:07.264Z,99939.30
2023-03-21T11:16:41.191Z,99940.84
2023-03-21T11:19:33.727Z,99939.77
2023-03-21T11:22:07.906Z,99937.09
2023-03-21T11:24:37.588Z,99937.94
2023-03-21T11:27:08.989Z,99935.95
2023-03-21T11:29:42.792Z,99932.99
2023-03-21T11:32:13.063Z,99932.26
2023-03-21T11:35:00.572Z,99932.75
2023-03-21T11:37:35.053Z,99932.30
2023-03-21T11:40:23.669Z,99934.69
2023-03-21T11:42:53.549Z,99934.95
2023-03-21T11:45:23.581Z,99931.62
2023-03-21T11:47:57.863Z,99932.55
2023-03-21T12:00:15.917Z,99928.59
2023-03-21T12:03:10.806Z,99928.20
2023-03-21T12:05:56.415Z,99926.05
2023-03-21T12:09:04.099Z,99923.70
2023-03-21T12:11:50.508Z,99921.24
2023-03-21T12:14:27.340Z,99919.48
2023-03-21T12:17:27.579Z,99915.35
2023-03-21T12:20:08.192Z,99911.95
2023-03-21T12:22:58.043Z,99907.91
2023-03-21T12:25:46.938Z,99912.27
2023-03-21T12:28:32.555Z,99909.48
2023-03-21T12:31:11.091Z,99903.07
2023-03-21T12:33:49.730Z,99901.64
2023-03-21T12:36:30.116Z,99895.65
2023-03-21T12:39:24.968Z,99894.26
2023-03-21T12:41:59.467Z,99893.11
2023-03-21T12:44:29.615Z,99895.77
2023-03-21T12:47:03.471Z,99889.41
2023-03-21T12:49:39.304Z,99891.60
2023-03-21T12:52:10.747Z,99891.05
2023-03-21T12:54:41.830Z,99890.06
2023-03-21T12:57:16.074Z,99888.21
2023-03-21T13:00:21.813Z,99886.11
2023-03-21T13:03:02.965Z,99883.83
2023-03-21T13:05:38.690Z,99883.13
2023-03-21T13:08:23.736Z,99884.10
2023-03-21T13:10:51.833Z,99879.48
2023-03-21T13:13:26.120Z,99876.15
2023-03-21T13:16:10.545Z,99872.95
2023-03-21T13:18:50.131Z,99870.00
2023-03-21T13:21:34.061Z,99872.16
2023-03-21T13:24:28.962Z,99871.95
2023-03-21T13:27:00.689Z,99872.64
2023-03-21T13:29:32.290Z,99875.61
2023-03-21T13:32:16.608Z,99876.30
2023-03-21T13:34:44.674Z,99879.06
2023-03-21T13:37:15.730Z,99879.86
2023-03-21T13:39:46.093Z,99876.73
2023-03-21T13:42:23.977Z,99877.73
2023-03-21T13:45:00.723Z,99877.02
2023-03-21T13:47:36.076Z,99877.29
2023-03-21T13:50:19.429Z,99874.94
2023-03-21T13:53:15.504Z,99872.14
2023-03-21T13:55:44.925Z,99871.47
2023-03-21T13:58:24.370Z,99870.73
2023-03-21T14:01:23.707Z,99871.23
2023-03-21T14:03:59.805Z,99869.91
2023-03-21T14:06:42.785Z,99868.55
2023-03-21T14:09:17.523Z,99868.38
2023-03-21T14:11:47.277Z,99865.09
2023-03-21T14:14:20.634Z,99866.00
2023-03-21T14:19:19.244Z,99867.15
2023-03-21T14:21:51.689Z,99868.65
2023-03-21T14:24:21.186Z,99869.08
2023-03-21T14:26:50.883Z,99867.83
2023-03-21T14:29:27.574Z,99866.57
2023-03-21T14:31:56.626Z,99865.73
2023-03-21T14:34:27.197Z,99863.59
2023-03-21T14:36:58.563Z,99864.17
2023-03-21T14:39:29.458Z,99866.74
2023-03-21T14:42:05.576Z,99866.96
2023-03-21T14:44:54.048Z,99863.48
2023-03-21T14:47:25.349Z,99858.17
2023-03-21T14:49:53.628Z,99860.41
2023-03-21T14:52:27.380Z,99865.91
2023-03-21T14:54:56.283Z,99865.98
2023-03-21T14:57:29.050Z,99869.73
2023-03-21T14:59:59.660Z,99871.81
2023-03-21T15:02:33.895Z,99872.08
2023-03-21T15:05:09.765Z,99871.52
2023-03-21T15:07:39.224Z,99873.70
2023-03-21T15:10:14.422Z,99873.94
2023-03-21T15:12:57.329Z,99873.25
2023-03-21T15:15:27.638Z,99872.91
2023-03-21T15:17:58.395Z,99871.58
2023-03-21T15:20:31.287Z,99874.52
2023-03-21T15:23:03.266Z,99875.23
2023-03-21T15:25:34.090Z,99877.60
2023-03-21T15:28:02.375Z,99874.23
2023-03-21T15:30:31.869Z,99878.36
2023-03-21T15:33:07.900Z,99878.80
2023-03-21T15:35:42.353Z,99878.77
2023-03-21T15:38:29.923Z,99882.14
2023-03-21T15:41:20.590Z,99887.23
2023-03-21T15:44:02.763Z,99888.92
2023-03-21T15:46:35.544Z,99886.27
2023-03-21T15:49:14.617Z,99890.31
2023-03-21T15:51:52.963Z,99891.50
2023-03-21T15:54:27.426Z,99892.01
2023-03-21T15:57:01.686Z,99896.59
2023-03-21T15:59:37.335Z,99893.80
2023-03-21T16:02:19.462Z,99890.48
2023-03-21T16:05:01.355Z,99886.48
2023-03-21T16:07:36.686Z,99889.17
2023-03-21T16:10:08.335Z,99894.73
2023-03-21T16:12:38.841Z,99896.15
2023-03-21T16:15:11.410Z,99892.91
2023-03-21T16:17:47.556Z,99897.45
2023-03-21T16:20:22.363Z,99898.73
2023-03-21T16:22:53.325Z,99901.00
2023-03-21T16:25:24.341Z,99902.38
2023-03-21T16:27:56.364Z,99899.88
2023-03-21T16:30:28.623Z,99902.02
2023-03-21T16:33:04.356Z,99905.82
2023-03-21T16:35:37.438Z,99906.90
2023-03-21T16:38:11.140Z,99909.71
2023-03-21T16:40:43.442Z,99912.00
2023-03-21T16:43:15.470Z,99911.80
2023-03-21T16:45:50.526Z,99915.90
2023-03-21T16:48:22.490Z,99920.36
2023-03-21T16:50:54.408Z,99926.02
2023-03-21T16:53:25.373Z,99925.57
2023-03-21T16:56:03.399Z,99922.73
2023-03-21T17:06:15.141Z,99935.44
2023-03-21T17:08:44.090Z,99941.23
2023-03-21T17:11:16.564Z,99938.77
2023-03-21T17:13:44.850Z,99940.81
2023-03-21T17:16:14.055Z,99936.90
2023-03-21T17:18:47.586Z,99941.64
2023-03-21T17:21:20.717Z,99940.04
2023-03-21T17:23:48.917Z,99940.73
2023-03-21T17:26:22.987Z,99942.35
2023-03-21T17:28:54.867Z,99943.21
2023-03-21T17:31:25.433Z,99943.61
2023-03-21T17:33:53.525Z,99942.79
2023-03-21T17:36:27.380Z,99941.46
2023-03-21T17:38:55.766Z,99949.05
2023-03-21T17:41:24.115Z,99947.92
2023-03-21T17:43:55.807Z,99946.59
2023-03-21T17:46:25.296Z,99943.33
2023-03-21T17:48:53.695Z,99944.92
2023-03-21T17:51:26.177Z,99946.73
2023-03-21T17:53:54.268Z,99947.59
2023-03-21T17:56:32.144Z,99950.33
2023-03-21T17:59:02.217Z,99950.76
2023-03-21T18:01:35.531Z,99950.92
2023-03-21T18:04:05.274Z,99953.23
2023-03-21T18:06:35.326Z,99955.88
2023-03-21T18:09:07.207Z,99953.16
2023-03-21T18:11:39.261Z,99954.92
2023-03-21T18:14:16.561Z,99950.87
2023-03-21T18:16:47.909Z,99954.30
2023-03-21T18:19:16.232Z,99952.50
2023-03-21T18:21:47.497Z,99953.86
2023-03-21T18:24:16.677Z,99954.79
2023-03-21T18:26:46.141Z,99955.77
2023-03-21T18:30:15.763Z,99957.77
2023-03-21T18:32:08.545Z,99961.66
2023-03-21T18:34:38.794Z,99960.83
2023-03-21T18:37:08.557Z,99964.45
2023-03-21T18:39:38.042Z,99961.59
2023-03-21T18:42:07.140Z,99961.55
2023-03-21T18:44:45.564Z,99963.23
2023-03-21T18:47:14.459Z,99965.45
2023-03-21T18:52:32.172Z,99969.13
2023-03-21T18:55:00.737Z,99975.50
2023-03-21T18:57:36.956Z,99973.46
2023-03-21T19:00:18.749Z,99970.86
2023-03-21T19:02:50.683Z,99971.41
2023-03-21T19:05:22.756Z,99975.66
2023-03-21T19:07:51.977Z,99973.81
2023-03-21T19:10:21.991Z,99976.13
2023-03-21T19:12:52.868Z,99979.91
2023-03-21T19:15:21.945Z,99979.12
2023-03-21T19:20:45.570Z,99983.35
2023-03-21T19:23:16.997Z,99985.73
2023-03-21T19:25:45.727Z,99989.83
2023-03-21T19:28:15.874Z,99989.78
2023-03-21T19:30:50.076Z,99993.18
2023-03-21T19:33:24.556Z,99991.40
2023-03-21T19:36:10.698Z,99992.99
2023-03-21T19:38:41.540Z,99989.60
2023-03-21T19:41:10.096Z,99989.58
2023-03-21T19:43:40.142Z,99989.84
2023-03-21T19:46:11.347Z,99990.58
2023-03-21T19:48:41.887Z,99984.48
2023-03-21T19:51:27.490Z,99987.29
2023-03-21T19:53:58.219Z,99986.34
2023-03-21T19:56:27.676Z,99989.30
2023-03-21T19:58:56.727Z,99989.88
2023-03-21T20:01:25.420Z,99990.81
2023-03-21T20:03:56.868Z,99992.10
2023-03-21T20:06:26.892Z,99991.76
2023-03-21T20:09:37.986Z,99992.77
2023-03-21T20:11:47.287Z,99994.60
2023-03-21T20:14:21.596Z,99995.57
2023-03-21T20:16:51.472Z,99997.24
2023-03-21T20:19:20.365Z,100000.13
2023-03-21T20:21:57.937Z,99996.61
2023-03-21T20:24:36.838Z,99992.70
2023-03-21T20:27:06.467Z,99992.52
2023-03-21T20:30:08.207Z,99994.68
2023-03-21T20:32:27.450Z,99993.45
2023-03-21T20:35:07.392Z,99991.78
2023-03-21T20:37:48.414Z,99995.02
2023-03-21T20:40:19.414Z,99994.02
2023-03-21T20:42:49.135Z,99992.07
2023-03-21T20:45:32.089Z,99989.13
2023-03-21T20:48:00.497Z,99991.23
2023-03-21T20:50:33.176Z,99992.30
2023-03-21T20:53:07.389Z,99990.31
2023-03-21T20:55:37.330Z,99993.73
2023-03-21T20:58:27.222Z,99995.00
2023-03-21T21:01:04.867Z,99994.25
2023-03-21T21:03:42.589Z,99990.75
2023-03-21T21:06:19.974Z,99991.77
2023-03-21T21:08:52.274Z,99995.64
2023-03-21T21:12:05.237Z,99992.99
2023-03-21T21:14:09.371Z,99995.39
2023-03-21T21:16:42.347Z,99992.71
2023-03-21T21:19:13.026Z,99993.34
2023-03-21T21:21:42.686Z,99995.91
2023-03-21T21:24:14.612Z,99993.62
2023-03-21T21:26:48.954Z,99995.25
2023-03-21T21:29:20.657Z,99996.08
2023-03-21T21:31:51.927Z,99994.66
2023-03-21T21:34:20.827Z,99996.09
2023-03-21T21:36:51.294Z,99995.10
2023-03-21T21:39:21.997Z,99993.73
2023-03-21T21:41:50.089Z,99995.60
2023-03-21T21:44:19.782Z,99995.70
2023-03-21T21:46:47.964Z,99993.72
2023-03-21T21:49:17.764Z,99995.35
2023-03-21T21:51:48.149Z,99996.38
2023-03-21T21:54:18.478Z,99994.40
2023-03-21T21:56:54.266Z,99992.90
2023-03-21T21:59:26.016Z,99992.42
2023-03-21T22:01:58.864Z,99993.27
2023-03-21T22:04:28.683Z,99994.67
2023-03-21T22:06:58.316Z,99996.05
2023-03-21T22:09:27.528Z,99994.32
2023-03-21T22:12:00.449Z,99997.34
2023-03-21T22:14:30.787Z,99997.19
2023-03-21T22:17:00.401Z,99997.94
2023-03-21T22:19:31.937Z,99999.77
2023-03-21T22:30:07.437Z,100005.20
2023-03-21T22:32:37.669Z,100007.75
2023-03-21T22:35:08.729Z,100008.29
2023-03-21T22:37:41.938Z,100007.26
2023-03-21T22:40:10.886Z,100007.16
2023-03-21T22:42:46.789Z,100008.52
2023-03-21T22:45:14.085Z,100007.43
2023-03-21T22:47:45.305Z,100014.48
2023-03-21T22:50:18.804Z,100018.64
2023-03-21T22:52:53.909Z,100017.61
2023-03-21T22:55:24.384Z,100019.03
2023-03-21T22:57:52.017Z,100019.30
2023-03-21T23:00:19.524Z,100021.35
2023-03-21T23:02:47.921Z,100022.48
2023-03-21T23:05:15.167Z,100027.27
2023-03-21T23:07:44.723Z,100028.29
2023-03-21T23:10:12.729Z,100030.00
2023-03-21T23:12:39.591Z,100032.90
2023-03-21T23:15:09.225Z,100038.43
2023-03-21T23:17:37.358Z,100040.42
2023-03-21T23:20:08.017Z,100042.51
2023-03-21T23:22:39.142Z,100042.25
2023-03-21T23:25:06.927Z,100036.17
2023-03-21T23:27:34.742Z,100035.21
2023-03-21T23:30:07.055Z,100034.59
2023-03-21T23:32:34.365Z,100034.97
2023-03-21T23:35:12.503Z,100028.15
2023-03-21T23:37:41.720Z,100026.55
2023-03-21T23:40:09.865Z,100025.45
2023-03-21T23:42:36.781Z,100023.59
2023-03-21T23:45:04.134Z,100019.66
2023-03-21T23:47:32.054Z,100020.39
2023-03-21T23:49:59.173Z,100019.55
2023-03-21T23:52:29.306Z,100021.69
2023-03-21T23:54:56.420Z,100021.58
2023-03-21T23:57:23.143Z,100021.34
2023-03-21T23:59:52.882Z,100017.16
